sensor_id;sensor_type;location;lat;lon;timestamp;P1;durP1;ratioP1;P2;durP2;ratioP2
12407;SDS011;6268;48.188;17.134;2023-04-08T00:00:05;11.93;;;10.90;;
12407;SDS011;6268;48.188;17.134;2023-04-08T00:02:35;12.87;;;11.67;;
12407;SDS011;6268;48.188;17.134;2023-04-08T00:05:04;12.67;;;11.47;;
12407;SDS011;6268;48.188;17.134;2023-04-08T00:07:35;11.97;;;10.87;;
12407;SDS011;6268;48.188;17.134;2023-04-08T00:10:05;12.20;;;11.20;;
12407;SDS011;6268;48.188;17.134;2023-04-08T00:12:36;12.40;;;11.30;;
12407;SDS011;6268;48.188;17.134;2023-04-08T00:15:06;12.73;;;11.53;;
12407;SDS011;6268;48.188;17.134;2023-04-08T00:17:35;13.63;;;12.33;;
12407;SDS011;6268;48.188;17.134;2023-04-08T00:20:05;13.07;;;11.87;;
12407;SDS011;6268;48.188;17.134;2023-04-08T00:22:35;13.50;;;12.13;;
12407;SDS011;6268;48.188;17.134;2023-04-08T00:25:04;13.43;;;12.20;;
12407;SDS011;6268;48.188;17.134;2023-04-08T00:27:36;13.27;;;11.93;;
12407;SDS011;6268;48.188;17.134;2023-04-08T00:30:05;14.47;;;12.93;;
12407;SDS011;6268;48.188;17.134;2023-04-08T00:32:35;13.00;;;11.70;;
12407;SDS011;6268;48.188;17.134;2023-04-08T00:35:04;14.40;;;12.90;;
12407;SDS011;6268;48.188;17.134;2023-04-08T00:37:34;12.63;;;11.50;;
12407;SDS011;6268;48.188;17.134;2023-04-08T00:40:03;12.10;;;10.93;;
12407;SDS011;6268;48.188;17.134;2023-04-08T00:42:35;12.53;;;11.33;;
12407;SDS011;6268;48.188;17.134;2023-04-08T00:45:04;13.27;;;11.97;;
12407;SDS011;6268;48.188;17.134;2023-04-08T00:47:35;13.67;;;11.23;;
12407;SDS011;6268;48.188;17.134;2023-04-08T00:50:06;12.50;;;11.20;;
12407;SDS011;6268;48.188;17.134;2023-04-08T00:52:37;11.57;;;10.47;;
12407;SDS011;6268;48.188;17.134;2023-04-08T00:55:07;11.53;;;10.43;;
12407;SDS011;6268;48.188;17.134;2023-04-08T00:57:36;11.27;;;10.17;;
12407;SDS011;6268;48.188;17.134;2023-04-08T01:00:06;11.40;;;10.30;;
12407;SDS011;6268;48.188;17.134;2023-04-08T01:02:39;11.30;;;9.63;;
12407;SDS011;6268;48.188;17.134;2023-04-08T01:05:19;10.30;;;9.30;;
12407;SDS011;6268;48.188;17.134;2023-04-08T01:07:57;10.73;;;9.70;;
12407;SDS011;6268;48.188;17.134;2023-04-08T01:10:33;10.33;;;9.33;;
12407;SDS011;6268;48.188;17.134;2023-04-08T01:13:08;11.20;;;10.10;;
12407;SDS011;6268;48.188;17.134;2023-04-08T01:15:45;11.10;;;9.93;;
12407;SDS011;6268;48.188;17.134;2023-04-08T01:18:16;11.43;;;10.23;;
12407;SDS011;6268;48.188;17.134;2023-04-08T01:20:47;10.50;;;9.50;;
12407;SDS011;6268;48.188;17.134;2023-04-08T01:23:22;10.70;;;9.60;;
12407;SDS011;6268;48.188;17.134;2023-04-08T01:26:01;9.23;;;8.33;;
12407;SDS011;6268;48.188;17.134;2023-04-08T01:28:30;9.43;;;8.53;;
12407;SDS011;6268;48.188;17.134;2023-04-08T01:31:02;10.47;;;9.47;;
12407;SDS011;6268;48.188;17.134;2023-04-08T01:33:31;10.60;;;9.50;;
12407;SDS011;6268;48.188;17.134;2023-04-08T01:36:01;9.70;;;8.80;;
12407;SDS011;6268;48.188;17.134;2023-04-08T01:38:33;10.33;;;9.23;;
12407;SDS011;6268;48.188;17.134;2023-04-08T01:41:04;10.97;;;9.87;;
12407;SDS011;6268;48.188;17.134;2023-04-08T01:43:37;10.07;;;9.17;;
12407;SDS011;6268;48.188;17.134;2023-04-08T01:46:09;9.73;;;8.83;;
12407;SDS011;6268;48.188;17.134;2023-04-08T01:48:40;10.37;;;9.37;;
12407;SDS011;6268;48.188;17.134;2023-04-08T01:51:11;10.27;;;9.30;;
12407;SDS011;6268;48.188;17.134;2023-04-08T01:53:44;10.03;;;9.10;;
12407;SDS011;6268;48.188;17.134;2023-04-08T01:56:18;9.53;;;8.63;;
12407;SDS011;6268;48.188;17.134;2023-04-08T01:58:51;10.90;;;9.90;;
12407;SDS011;6268;48.188;17.134;2023-04-08T02:01:24;9.73;;;8.73;;
12407;SDS011;6268;48.188;17.134;2023-04-08T02:03:56;10.40;;;9.33;;
12407;SDS011;6268;48.188;17.134;2023-04-08T02:06:28;9.83;;;8.90;;
12407;SDS011;6268;48.188;17.134;2023-04-08T02:09:00;10.13;;;9.13;;
12407;SDS011;6268;48.188;17.134;2023-04-08T02:11:31;9.83;;;8.83;;
12407;SDS011;6268;48.188;17.134;2023-04-08T02:14:00;9.97;;;9.03;;
12407;SDS011;6268;48.188;17.134;2023-04-08T02:16:30;9.00;;;8.20;;
12407;SDS011;6268;48.188;17.134;2023-04-08T02:19:09;9.63;;;8.63;;
12407;SDS011;6268;48.188;17.134;2023-04-08T02:21:46;8.70;;;7.90;;
12407;SDS011;6268;48.188;17.134;2023-04-08T02:24:22;9.27;;;8.47;;
12407;SDS011;6268;48.188;17.134;2023-04-08T02:26:54;9.90;;;8.90;;
12407;SDS011;6268;48.188;17.134;2023-04-08T02:29:25;9.10;;;8.30;;
12407;SDS011;6268;48.188;17.134;2023-04-08T02:31:58;9.40;;;8.40;;
12407;SDS011;6268;48.188;17.134;2023-04-08T02:34:31;9.57;;;8.67;;
12407;SDS011;6268;48.188;17.134;2023-04-08T02:37:01;9.57;;;8.63;;
12407;SDS011;6268;48.188;17.134;2023-04-08T02:39:31;9.13;;;8.23;;
12407;SDS011;6268;48.188;17.134;2023-04-08T02:42:01;9.57;;;8.77;;
12407;SDS011;6268;48.188;17.134;2023-04-08T02:44:32;9.70;;;8.80;;
12407;SDS011;6268;48.188;17.134;2023-04-08T02:47:01;9.93;;;9.03;;
12407;SDS011;6268;48.188;17.134;2023-04-08T02:49:30;9.50;;;8.70;;
12407;SDS011;6268;48.188;17.134;2023-04-08T02:51:59;9.77;;;8.87;;
12407;SDS011;6268;48.188;17.134;2023-04-08T02:54:29;9.67;;;8.77;;
12407;SDS011;6268;48.188;17.134;2023-04-08T02:56:58;8.93;;;8.13;;
12407;SDS011;6268;48.188;17.134;2023-04-08T02:59:28;9.47;;;8.57;;
12407;SDS011;6268;48.188;17.134;2023-04-08T03:01:57;8.87;;;8.13;;
12407;SDS011;6268;48.188;17.134;2023-04-08T03:04:26;10.70;;;9.67;;
12407;SDS011;6268;48.188;17.134;2023-04-08T03:06:55;9.20;;;8.33;;
12407;SDS011;6268;48.188;17.134;2023-04-08T03:09:24;10.10;;;9.20;;
12407;SDS011;6268;48.188;17.134;2023-04-08T03:11:53;10.00;;;9.10;;
12407;SDS011;6268;48.188;17.134;2023-04-08T03:14:22;10.30;;;9.40;;
12407;SDS011;6268;48.188;17.134;2023-04-08T03:16:56;10.10;;;9.20;;
12407;SDS011;6268;48.188;17.134;2023-04-08T03:19:26;10.57;;;9.57;;
12407;SDS011;6268;48.188;17.134;2023-04-08T03:21:55;10.33;;;9.43;;
12407;SDS011;6268;48.188;17.134;2023-04-08T03:24:24;9.63;;;8.73;;
12407;SDS011;6268;48.188;17.134;2023-04-08T03:26:53;9.57;;;8.67;;
12407;SDS011;6268;48.188;17.134;2023-04-08T03:29:22;10.17;;;9.17;;
12407;SDS011;6268;48.188;17.134;2023-04-08T03:31:51;9.23;;;8.43;;
12407;SDS011;6268;48.188;17.134;2023-04-08T03:34:21;9.37;;;8.53;;
12407;SDS011;6268;48.188;17.134;2023-04-08T03:36:50;8.80;;;8.07;;
12407;SDS011;6268;48.188;17.134;2023-04-08T03:39:20;8.83;;;7.93;;
12407;SDS011;6268;48.188;17.134;2023-04-08T03:41:49;8.87;;;8.03;;
12407;SDS011;6268;48.188;17.134;2023-04-08T03:44:18;8.77;;;8.00;;
12407;SDS011;6268;48.188;17.134;2023-04-08T03:46:46;9.57;;;8.73;;
12407;SDS011;6268;48.188;17.134;2023-04-08T03:49:15;8.70;;;7.90;;
12407;SDS011;6268;48.188;17.134;2023-04-08T03:51:46;8.60;;;7.90;;
12407;SDS011;6268;48.188;17.134;2023-04-08T03:54:14;8.30;;;7.60;;
12407;SDS011;6268;48.188;17.134;2023-04-08T03:56:44;9.37;;;8.47;;
12407;SDS011;6268;48.188;17.134;2023-04-08T03:59:13;9.10;;;8.30;;
12407;SDS011;6268;48.188;17.134;2023-04-08T04:01:42;9.70;;;8.83;;
12407;SDS011;6268;48.188;17.134;2023-04-08T04:04:12;8.80;;;8.00;;
12407;SDS011;6268;48.188;17.134;2023-04-08T04:06:42;9.93;;;8.93;;
12407;SDS011;6268;48.188;17.134;2023-04-08T04:09:12;7.33;;;6.83;;
12407;SDS011;6268;48.188;17.134;2023-04-08T04:11:42;7.67;;;7.07;;
12407;SDS011;6268;48.188;17.134;2023-04-08T04:14:11;8.70;;;7.90;;
12407;SDS011;6268;48.188;17.134;2023-04-08T04:16:40;9.00;;;8.20;;
12407;SDS011;6268;48.188;17.134;2023-04-08T04:19:09;8.03;;;7.33;;
12407;SDS011;6268;48.188;17.134;2023-04-08T04:21:38;8.73;;;8.00;;
12407;SDS011;6268;48.188;17.134;2023-04-08T04:24:07;8.90;;;8.13;;
12407;SDS011;6268;48.188;17.134;2023-04-08T04:26:41;8.57;;;7.87;;
12407;SDS011;6268;48.188;17.134;2023-04-08T04:29:10;9.27;;;8.47;;
12407;SDS011;6268;48.188;17.134;2023-04-08T04:31:39;9.40;;;8.50;;
12407;SDS011;6268;48.188;17.134;2023-04-08T04:34:08;10.50;;;9.50;;
12407;SDS011;6268;48.188;17.134;2023-04-08T04:36:37;8.83;;;8.03;;
12407;SDS011;6268;48.188;17.134;2023-04-08T04:39:06;9.97;;;9.00;;
12407;SDS011;6268;48.188;17.134;2023-04-08T04:41:35;10.83;;;9.73;;
12407;SDS011;6268;48.188;17.134;2023-04-08T04:44:07;11.97;;;10.77;;
12407;SDS011;6268;48.188;17.134;2023-04-08T04:46:37;11.97;;;10.77;;
12407;SDS011;6268;48.188;17.134;2023-04-08T04:49:06;11.73;;;10.63;;
12407;SDS011;6268;48.188;17.134;2023-04-08T04:51:38;10.53;;;9.50;;
12407;SDS011;6268;48.188;17.134;2023-04-08T04:54:07;9.87;;;8.90;;
12407;SDS011;6268;48.188;17.134;2023-04-08T04:56:36;9.53;;;8.63;;
12407;SDS011;6268;48.188;17.134;2023-04-08T04:59:05;8.70;;;7.90;;
12407;SDS011;6268;48.188;17.134;2023-04-08T05:01:35;9.30;;;8.47;;
12407;SDS011;6268;48.188;17.134;2023-04-08T05:04:06;9.90;;;8.93;;
12407;SDS011;6268;48.188;17.134;2023-04-08T05:06:35;9.87;;;8.90;;
12407;SDS011;6268;48.188;17.134;2023-04-08T05:09:04;9.73;;;8.83;;
12407;SDS011;6268;48.188;17.134;2023-04-08T05:11:33;9.93;;;9.03;;
12407;SDS011;6268;48.188;17.134;2023-04-08T05:14:03;9.00;;;8.20;;
12407;SDS011;6268;48.188;17.134;2023-04-08T05:16:36;9.67;;;8.67;;
12407;SDS011;6268;48.188;17.134;2023-04-08T05:19:06;11.63;;;10.43;;
12407;SDS011;6268;48.188;17.134;2023-04-08T05:21:35;13.73;;;12.30;;
12407;SDS011;6268;48.188;17.134;2023-04-08T05:24:04;12.97;;;11.30;;
12407;SDS011;6268;48.188;17.134;2023-04-08T05:26:36;12.70;;;11.40;;
12407;SDS011;6268;48.188;17.134;2023-04-08T05:29:05;11.40;;;9.67;;
12407;SDS011;6268;48.188;17.134;2023-04-08T05:31:34;10.50;;;9.50;;
12407;SDS011;6268;48.188;17.134;2023-04-08T05:34:04;10.57;;;9.53;;
12407;SDS011;6268;48.188;17.134;2023-04-08T05:36:34;11.27;;;10.07;;
12407;SDS011;6268;48.188;17.134;2023-04-08T05:39:03;10.90;;;9.80;;
12407;SDS011;6268;48.188;17.134;2023-04-08T05:41:32;13.00;;;10.93;;
12407;SDS011;6268;48.188;17.134;2023-04-08T05:44:01;11.37;;;10.17;;
12407;SDS011;6268;48.188;17.134;2023-04-08T05:46:30;11.20;;;9.80;;
12407;SDS011;6268;48.188;17.134;2023-04-08T05:48:59;10.17;;;9.20;;
12407;SDS011;6268;48.188;17.134;2023-04-08T05:51:29;10.83;;;9.73;;
12407;SDS011;6268;48.188;17.134;2023-04-08T05:54:01;10.27;;;9.27;;
12407;SDS011;6268;48.188;17.134;2023-04-08T05:56:30;9.97;;;8.97;;
12407;SDS011;6268;48.188;17.134;2023-04-08T05:59:00;9.97;;;9.00;;
12407;SDS011;6268;48.188;17.134;2023-04-08T06:01:30;10.17;;;9.20;;
12407;SDS011;6268;48.188;17.134;2023-04-08T06:03:59;9.07;;;8.17;;
12407;SDS011;6268;48.188;17.134;2023-04-08T06:06:30;10.30;;;9.30;;
12407;SDS011;6268;48.188;17.134;2023-04-08T06:08:59;9.73;;;8.73;;
12407;SDS011;6268;48.188;17.134;2023-04-08T06:11:28;9.13;;;8.33;;
12407;SDS011;6268;48.188;17.134;2023-04-08T06:13:57;9.60;;;8.33;;
12407;SDS011;6268;48.188;17.134;2023-04-08T06:16:26;9.80;;;8.80;;
12407;SDS011;6268;48.188;17.134;2023-04-08T06:18:55;9.00;;;8.07;;
12407;SDS011;6268;48.188;17.134;2023-04-08T06:21:24;8.23;;;7.27;;
12407;SDS011;6268;48.188;17.134;2023-04-08T06:23:55;8.30;;;7.50;;
12407;SDS011;6268;48.188;17.134;2023-04-08T06:26:24;8.13;;;7.43;;
12407;SDS011;6268;48.188;17.134;2023-04-08T06:28:54;7.53;;;6.87;;
12407;SDS011;6268;48.188;17.134;2023-04-08T06:31:23;8.03;;;7.33;;
12407;SDS011;6268;48.188;17.134;2023-04-08T06:33:52;7.97;;;7.20;;
12407;SDS011;6268;48.188;17.134;2023-04-08T06:36:21;7.73;;;7.07;;
12407;SDS011;6268;48.188;17.134;2023-04-08T06:38:50;7.83;;;7.03;;
12407;SDS011;6268;48.188;17.134;2023-04-08T06:41:20;9.03;;;8.13;;
12407;SDS011;6268;48.188;17.134;2023-04-08T06:43:52;7.73;;;7.03;;
12407;SDS011;6268;48.188;17.134;2023-04-08T06:46:21;7.37;;;6.77;;
12407;SDS011;6268;48.188;17.134;2023-04-08T06:48:51;6.93;;;6.43;;
12407;SDS011;6268;48.188;17.134;2023-04-08T06:51:21;7.63;;;6.93;;
12407;SDS011;6268;48.188;17.134;2023-04-08T06:53:49;7.27;;;6.67;;
12407;SDS011;6268;48.188;17.134;2023-04-08T06:56:19;5.77;;;5.37;;
12407;SDS011;6268;48.188;17.134;2023-04-08T06:58:51;6.40;;;5.90;;
12407;SDS011;6268;48.188;17.134;2023-04-08T07:01:20;6.67;;;6.13;;
12407;SDS011;6268;48.188;17.134;2023-04-08T07:03:50;6.50;;;6.00;;
12407;SDS011;6268;48.188;17.134;2023-04-08T07:06:19;6.00;;;5.37;;
12407;SDS011;6268;48.188;17.134;2023-04-08T07:08:49;6.03;;;5.53;;
12407;SDS011;6268;48.188;17.134;2023-04-08T07:11:17;5.67;;;5.23;;
12407;SDS011;6268;48.188;17.134;2023-04-08T07:13:48;6.20;;;5.67;;
12407;SDS011;6268;48.188;17.134;2023-04-08T07:16:18;6.00;;;5.50;;
12407;SDS011;6268;48.188;17.134;2023-04-08T07:18:47;5.97;;;5.47;;
12407;SDS011;6268;48.188;17.134;2023-04-08T07:21:17;6.00;;;5.50;;
12407;SDS011;6268;48.188;17.134;2023-04-08T07:23:46;5.57;;;5.17;;
12407;SDS011;6268;48.188;17.134;2023-04-08T07:26:15;5.80;;;5.37;;
12407;SDS011;6268;48.188;17.134;2023-04-08T07:28:45;5.03;;;4.73;;
12407;SDS011;6268;48.188;17.134;2023-04-08T07:31:17;5.00;;;4.70;;
12407;SDS011;6268;48.188;17.134;2023-04-08T07:33:46;5.37;;;4.97;;
12407;SDS011;6268;48.188;17.134;2023-04-08T07:36:15;5.07;;;4.67;;
12407;SDS011;6268;48.188;17.134;2023-04-08T07:38:44;5.00;;;4.70;;
12407;SDS011;6268;48.188;17.134;2023-04-08T07:41:13;5.60;;;5.20;;
12407;SDS011;6268;48.188;17.134;2023-04-08T07:43:43;4.90;;;4.57;;
12407;SDS011;6268;48.188;17.134;2023-04-08T07:46:13;4.40;;;4.17;;
12407;SDS011;6268;48.188;17.134;2023-04-08T07:48:42;4.60;;;4.30;;
12407;SDS011;6268;48.188;17.134;2023-04-08T07:51:11;5.03;;;4.73;;
12407;SDS011;6268;48.188;17.134;2023-04-08T07:53:40;5.00;;;4.70;;
12407;SDS011;6268;48.188;17.134;2023-04-08T07:56:10;4.20;;;3.90;;
12407;SDS011;6268;48.188;17.134;2023-04-08T07:58:41;5.20;;;4.90;;
12407;SDS011;6268;48.188;17.134;2023-04-08T08:01:15;4.67;;;4.37;;
12407;SDS011;6268;48.188;17.134;2023-04-08T08:03:45;4.60;;;4.30;;
12407;SDS011;6268;48.188;17.134;2023-04-08T08:06:19;5.23;;;4.83;;
12407;SDS011;6268;48.188;17.134;2023-04-08T08:08:48;4.97;;;4.57;;
12407;SDS011;6268;48.188;17.134;2023-04-08T08:11:17;5.43;;;5.00;;
12407;SDS011;6268;48.188;17.134;2023-04-08T08:13:47;5.40;;;4.90;;
12407;SDS011;6268;48.188;17.134;2023-04-08T08:16:18;5.83;;;5.33;;
12407;SDS011;6268;48.188;17.134;2023-04-08T08:18:47;5.57;;;5.17;;
12407;SDS011;6268;48.188;17.134;2023-04-08T08:21:16;6.33;;;5.83;;
12407;SDS011;6268;48.188;17.134;2023-04-08T08:23:45;6.27;;;5.77;;
12407;SDS011;6268;48.188;17.134;2023-04-08T08:26:14;6.43;;;5.93;;
12407;SDS011;6268;48.188;17.134;2023-04-08T08:28:43;7.23;;;6.53;;
12407;SDS011;6268;48.188;17.134;2023-04-08T08:31:12;6.90;;;6.30;;
12407;SDS011;6268;48.188;17.134;2023-04-08T08:33:43;6.87;;;6.27;;
12407;SDS011;6268;48.188;17.134;2023-04-08T08:36:12;9.10;;;8.20;;
12407;SDS011;6268;48.188;17.134;2023-04-08T08:38:42;10.87;;;9.77;;
12407;SDS011;6268;48.188;17.134;2023-04-08T08:41:11;10.53;;;9.53;;
12407;SDS011;6268;48.188;17.134;2023-04-08T08:43:39;10.87;;;9.83;;
12407;SDS011;6268;48.188;17.134;2023-04-08T08:46:10;11.07;;;10.00;;
12407;SDS011;6268;48.188;17.134;2023-04-08T08:48:46;10.60;;;9.50;;
12407;SDS011;6268;48.188;17.134;2023-04-08T08:51:15;10.67;;;9.57;;
12407;SDS011;6268;48.188;17.134;2023-04-08T08:53:44;12.87;;;11.60;;
12407;SDS011;6268;48.188;17.134;2023-04-08T08:56:13;13.40;;;11.53;;
12407;SDS011;6268;48.188;17.134;2023-04-08T08:58:44;11.93;;;10.73;;
12407;SDS011;6268;48.188;17.134;2023-04-08T09:01:33;13.13;;;11.73;;
12407;SDS011;6268;48.188;17.134;2023-04-08T09:04:12;10.53;;;9.53;;
12407;SDS011;6268;48.188;17.134;2023-04-08T09:06:44;10.97;;;9.87;;
12407;SDS011;6268;48.188;17.134;2023-04-08T09:09:15;10.10;;;9.20;;
12407;SDS011;6268;48.188;17.134;2023-04-08T09:11:48;11.00;;;10.00;;
12407;SDS011;6268;48.188;17.134;2023-04-08T09:14:30;10.40;;;9.50;;
12407;SDS011;6268;48.188;17.134;2023-04-08T09:31:20;9.03;;;8.23;;
12407;SDS011;6268;48.188;17.134;2023-04-08T09:33:51;9.10;;;8.37;;
12407;SDS011;6268;48.188;17.134;2023-04-08T09:36:22;9.50;;;8.70;;
12407;SDS011;6268;48.188;17.134;2023-04-08T09:38:52;9.27;;;8.47;;
12407;SDS011;6268;48.188;17.134;2023-04-08T09:41:21;8.03;;;7.37;;
12407;SDS011;6268;48.188;17.134;2023-04-08T09:43:54;8.33;;;7.67;;
12407;SDS011;6268;48.188;17.134;2023-04-08T09:46:39;9.03;;;8.33;;
12407;SDS011;6268;48.188;17.134;2023-04-08T09:49:25;8.53;;;7.80;;
12407;SDS011;6268;48.188;17.134;2023-04-08T09:51:58;8.23;;;7.50;;
12407;SDS011;6268;48.188;17.134;2023-04-08T09:54:37;8.43;;;7.73;;
12407;SDS011;6268;48.188;17.134;2023-04-08T09:57:19;8.93;;;8.23;;
12407;SDS011;6268;48.188;17.134;2023-04-08T09:59:56;7.80;;;7.20;;
12407;SDS011;6268;48.188;17.134;2023-04-08T10:02:35;8.53;;;7.83;;
12407;SDS011;6268;48.188;17.134;2023-04-08T10:05:19;8.47;;;7.67;;
12407;SDS011;6268;48.188;17.134;2023-04-08T10:07:51;8.50;;;7.80;;
12407;SDS011;6268;48.188;17.134;2023-04-08T10:10:22;9.03;;;8.13;;
12407;SDS011;6268;48.188;17.134;2023-04-08T10:12:52;9.00;;;8.17;;
12407;SDS011;6268;48.188;17.134;2023-04-08T10:15:25;9.07;;;8.27;;
12407;SDS011;6268;48.188;17.134;2023-04-08T10:20:59;8.20;;;7.50;;
12407;SDS011;6268;48.188;17.134;2023-04-08T10:26:38;8.33;;;7.63;;
12407;SDS011;6268;48.188;17.134;2023-04-08T10:35:09;9.23;;;8.43;;
12407;SDS011;6268;48.188;17.134;2023-04-08T10:37:37;11.00;;;9.90;;
12407;SDS011;6268;48.188;17.134;2023-04-08T10:40:07;10.73;;;9.73;;
12407;SDS011;6268;48.188;17.134;2023-04-08T10:42:46;9.27;;;8.47;;
12407;SDS011;6268;48.188;17.134;2023-04-08T10:45:21;9.80;;;8.97;;
12407;SDS011;6268;48.188;17.134;2023-04-08T10:47:51;9.40;;;8.60;;
12407;SDS011;6268;48.188;17.134;2023-04-08T10:50:21;11.13;;;10.03;;
12407;SDS011;6268;48.188;17.134;2023-04-08T10:52:50;10.43;;;9.53;;
12407;SDS011;6268;48.188;17.134;2023-04-08T10:55:21;11.80;;;10.70;;
12407;SDS011;6268;48.188;17.134;2023-04-08T10:57:51;11.30;;;10.20;;
12407;SDS011;6268;48.188;17.134;2023-04-08T11:00:31;11.43;;;10.33;;
12407;SDS011;6268;48.188;17.134;2023-04-08T11:03:01;11.27;;;10.27;;
12407;SDS011;6268;48.188;17.134;2023-04-08T11:05:33;11.77;;;10.67;;
12407;SDS011;6268;48.188;17.134;2023-04-08T11:08:03;11.73;;;10.60;;
12407;SDS011;6268;48.188;17.134;2023-04-08T11:10:35;12.23;;;11.07;;
12407;SDS011;6268;48.188;17.134;2023-04-08T11:13:06;12.73;;;11.53;;
12407;SDS011;6268;48.188;17.134;2023-04-08T11:15:36;12.53;;;11.37;;
12407;SDS011;6268;48.188;17.134;2023-04-08T11:18:05;12.50;;;11.30;;
12407;SDS011;6268;48.188;17.134;2023-04-08T11:20:36;12.27;;;11.17;;
12407;SDS011;6268;48.188;17.134;2023-04-08T11:23:10;12.80;;;11.50;;
12407;SDS011;6268;48.188;17.134;2023-04-08T11:25:40;13.20;;;11.90;;
12407;SDS011;6268;48.188;17.134;2023-04-08T11:28:10;14.57;;;13.07;;
12407;SDS011;6268;48.188;17.134;2023-04-08T11:30:40;13.73;;;12.33;;
12407;SDS011;6268;48.188;17.134;2023-04-08T11:33:10;13.10;;;11.80;;
12407;SDS011;6268;48.188;17.134;2023-04-08T11:35:42;13.47;;;12.07;;
12407;SDS011;6268;48.188;17.134;2023-04-08T11:38:11;12.97;;;11.63;;
12407;SDS011;6268;48.188;17.134;2023-04-08T11:40:40;14.13;;;12.67;;
12407;SDS011;6268;48.188;17.134;2023-04-08T11:43:21;14.67;;;13.20;;
12407;SDS011;6268;48.188;17.134;2023-04-08T11:45:50;15.40;;;13.87;;
12407;SDS011;6268;48.188;17.134;2023-04-08T11:48:19;15.00;;;13.40;;
12407;SDS011;6268;48.188;17.134;2023-04-08T11:51:01;13.63;;;12.30;;
12407;SDS011;6268;48.188;17.134;2023-04-08T11:53:31;14.70;;;13.30;;
12407;SDS011;6268;48.188;17.134;2023-04-08T11:56:14;14.83;;;13.23;;
12407;SDS011;6268;48.188;17.134;2023-04-08T11:58:44;15.73;;;13.93;;
12407;SDS011;6268;48.188;17.134;2023-04-08T12:01:13;15.97;;;14.27;;
12407;SDS011;6268;48.188;17.134;2023-04-08T12:03:58;16.67;;;14.97;;
12407;SDS011;6268;48.188;17.134;2023-04-08T12:06:30;18.53;;;14.60;;
12407;SDS011;6268;48.188;17.134;2023-04-08T12:08:58;16.93;;;15.20;;
12407;SDS011;6268;48.188;17.134;2023-04-08T12:11:27;15.83;;;14.27;;
12407;SDS011;6268;48.188;17.134;2023-04-08T12:13:56;15.60;;;14.00;;
12407;SDS011;6268;48.188;17.134;2023-04-08T12:16:24;16.07;;;14.47;;
12407;SDS011;6268;48.188;17.134;2023-04-08T12:18:53;16.20;;;14.50;;
12407;SDS011;6268;48.188;17.134;2023-04-08T12:21:22;16.43;;;14.80;;
12407;SDS011;6268;48.188;17.134;2023-04-08T12:23:52;16.40;;;14.70;;
12407;SDS011;6268;48.188;17.134;2023-04-08T12:26:21;14.23;;;12.93;;
12407;SDS011;6268;48.188;17.134;2023-04-08T12:28:50;15.37;;;13.77;;
12407;SDS011;6268;48.188;17.134;2023-04-08T12:31:19;14.93;;;13.33;;
12407;SDS011;6268;48.188;17.134;2023-04-08T12:33:48;15.20;;;13.70;;
12407;SDS011;6268;48.188;17.134;2023-04-08T12:36:17;19.80;;;17.67;;
12407;SDS011;6268;48.188;17.134;2023-04-08T12:38:46;20.10;;;17.97;;
12407;SDS011;6268;48.188;17.134;2023-04-08T12:41:17;16.10;;;14.50;;
12407;SDS011;6268;48.188;17.134;2023-04-08T12:43:45;15.43;;;13.83;;
12407;SDS011;6268;48.188;17.134;2023-04-08T12:46:14;14.23;;;12.93;;
12407;SDS011;6268;48.188;17.134;2023-04-08T12:48:43;14.57;;;13.20;;
12407;SDS011;6268;48.188;17.134;2023-04-08T12:51:15;14.43;;;12.93;;
12407;SDS011;6268;48.188;17.134;2023-04-08T12:53:43;14.83;;;13.43;;
12407;SDS011;6268;48.188;17.134;2023-04-08T12:56:12;15.13;;;13.53;;
12407;SDS011;6268;48.188;17.134;2023-04-08T12:58:43;15.23;;;13.73;;
12407;SDS011;6268;48.188;17.134;2023-04-08T13:01:11;14.10;;;12.70;;
12407;SDS011;6268;48.188;17.134;2023-04-08T13:03:40;14.50;;;13.10;;
12407;SDS011;6268;48.188;17.134;2023-04-08T13:06:12;14.25;;;12.95;;
12407;SDS011;6268;48.188;17.134;2023-04-08T13:08:41;13.98;;;12.57;;
12407;SDS011;6268;48.188;17.134;2023-04-08T13:11:10;13.95;;;12.55;;
12407;SDS011;6268;48.188;17.134;2023-04-08T13:13:39;13.55;;;12.25;;
12407;SDS011;6268;48.188;17.134;2023-04-08T13:16:09;14.87;;;13.57;;
12407;SDS011;6268;48.188;17.134;2023-04-08T13:18:38;14.38;;;13.05;;
12407;SDS011;6268;48.188;17.134;2023-04-08T13:21:07;14.00;;;12.68;;
12407;SDS011;6268;48.188;17.134;2023-04-08T13:23:37;13.63;;;12.32;;
12407;SDS011;6268;48.188;17.134;2023-04-08T13:26:05;13.85;;;12.52;;
12407;SDS011;6268;48.188;17.134;2023-04-08T13:28:34;14.10;;;12.73;;
12407;SDS011;6268;48.188;17.134;2023-04-08T13:31:23;13.85;;;12.57;;
12407;SDS011;6268;48.188;17.134;2023-04-08T13:33:53;12.90;;;11.68;;
12407;SDS011;6268;48.188;17.134;2023-04-08T13:36:23;13.35;;;12.15;;
12407;SDS011;6268;48.188;17.134;2023-04-08T13:38:54;15.93;;;14.32;;
12407;SDS011;6268;48.188;17.134;2023-04-08T13:41:23;11.88;;;10.77;;
12407;SDS011;6268;48.188;17.134;2023-04-08T13:43:53;11.60;;;10.57;;
12407;SDS011;6268;48.188;17.134;2023-04-08T13:46:23;11.53;;;10.53;;
12407;SDS011;6268;48.188;17.134;2023-04-08T13:48:52;11.40;;;10.40;;
12407;SDS011;6268;48.188;17.134;2023-04-08T13:51:21;11.07;;;9.97;;
12407;SDS011;6268;48.188;17.134;2023-04-08T13:53:50;10.67;;;9.70;;
12407;SDS011;6268;48.188;17.134;2023-04-08T13:56:18;11.07;;;10.00;;
12407;SDS011;6268;48.188;17.134;2023-04-08T13:58:47;11.80;;;10.60;;
12407;SDS011;6268;48.188;17.134;2023-04-08T14:01:24;11.47;;;10.40;;
12407;SDS011;6268;48.188;17.134;2023-04-08T14:03:53;12.47;;;11.27;;
12407;SDS011;6268;48.188;17.134;2023-04-08T14:06:22;11.20;;;10.20;;
12407;SDS011;6268;48.188;17.134;2023-04-08T14:08:52;11.80;;;10.70;;
12407;SDS011;6268;48.188;17.134;2023-04-08T14:11:20;11.73;;;10.63;;
12407;SDS011;6268;48.188;17.134;2023-04-08T14:13:49;11.87;;;10.77;;
12407;SDS011;6268;48.188;17.134;2023-04-08T14:16:18;12.10;;;11.03;;
12407;SDS011;6268;48.188;17.134;2023-04-08T14:18:48;12.67;;;11.37;;
12407;SDS011;6268;48.188;17.134;2023-04-08T14:21:17;12.03;;;10.93;;
12407;SDS011;6268;48.188;17.134;2023-04-08T14:23:46;12.90;;;11.57;;
12407;SDS011;6268;48.188;17.134;2023-04-08T14:26:15;12.27;;;11.17;;
12407;SDS011;6268;48.188;17.134;2023-04-08T14:28:44;13.30;;;11.97;;
12407;SDS011;6268;48.188;17.134;2023-04-08T14:31:13;12.20;;;11.00;;
12407;SDS011;6268;48.188;17.134;2023-04-08T14:33:42;12.50;;;11.30;;
12407;SDS011;6268;48.188;17.134;2023-04-08T14:36:12;12.13;;;11.03;;
12407;SDS011;6268;48.188;17.134;2023-04-08T14:38:41;11.90;;;10.80;;
12407;SDS011;6268;48.188;17.134;2023-04-08T14:41:10;14.73;;;13.23;;
12407;SDS011;6268;48.188;17.134;2023-04-08T14:43:38;13.67;;;12.27;;
12407;SDS011;6268;48.188;17.134;2023-04-08T14:46:07;14.10;;;12.63;;
12407;SDS011;6268;48.188;17.134;2023-04-08T14:48:36;14.30;;;13.00;;
12407;SDS011;6268;48.188;17.134;2023-04-08T14:51:05;14.20;;;12.90;;
12407;SDS011;6268;48.188;17.134;2023-04-08T14:53:35;10.82;;;9.93;;
12407;SDS011;6268;48.188;17.134;2023-04-08T14:56:04;14.53;;;13.13;;
12407;SDS011;6268;48.188;17.134;2023-04-08T14:58:35;12.20;;;11.10;;
12407;SDS011;6268;48.188;17.134;2023-04-08T15:01:04;13.20;;;12.00;;
12407;SDS011;6268;48.188;17.134;2023-04-08T15:03:33;12.75;;;11.63;;
12407;SDS011;6268;48.188;17.134;2023-04-08T15:06:02;12.18;;;11.18;;
12407;SDS011;6268;48.188;17.134;2023-04-08T15:08:32;13.10;;;11.90;;
12407;SDS011;6268;48.188;17.134;2023-04-08T15:11:03;12.13;;;11.10;;
12407;SDS011;6268;48.188;17.134;2023-04-08T15:13:31;12.33;;;11.23;;
12407;SDS011;6268;48.188;17.134;2023-04-08T15:16:01;12.80;;;11.70;;
12407;SDS011;6268;48.188;17.134;2023-04-08T15:18:30;12.27;;;11.07;;
12407;SDS011;6268;48.188;17.134;2023-04-08T15:20:59;12.00;;;11.00;;